createdAt,value
2019-05-18T00:01:44.999Z,30.77
2019-05-18T00:04:13.060Z,28.90
2019-05-18T00:06:40.213Z,22.53
2019-05-18T00:09:07.325Z,24.10
2019-05-18T00:11:34.275Z,25.60
2019-05-18T00:14:01.218Z,24.33
2019-05-18T00:16:28.361Z,22.73
2019-05-18T00:18:55.343Z,34.27
2019-05-18T00:21:22.298Z,27.90
2019-05-18T00:23:56.692Z,33.33
2019-05-18T00:26:23.637Z,28.27
2019-05-18T00:28:50.610Z,40.53
2019-05-18T00:31:17.596Z,25.97
2019-05-18T00:33:44.577Z,33.10
2019-05-18T00:36:11.523Z,17.27
2019-05-18T00:38:38.467Z,15.97
2019-05-18T00:41:05.444Z,28.70
2019-05-18T00:43:32.398Z,20.30
2019-05-18T00:45:59.462Z,29.70
2019-05-18T00:48:26.478Z,34.90
2019-05-18T00:50:53.430Z,29.00
2019-05-18T00:53:20.363Z,28.33
2019-05-18T00:55:47.368Z,24.73
2019-05-18T00:58:14.367Z,30.47
2019-05-18T01:00:41.545Z,32.77
2019-05-18T01:03:08.538Z,41.30
2019-05-18T01:05:38.036Z,34.27
2019-05-18T01:08:04.387Z,37.70
2019-05-18T01:10:33.162Z,41.77
2019-05-18T01:13:00.150Z,33.70
2019-05-18T01:15:27.086Z,29.80
2019-05-18T01:17:57.235Z,23.93
2019-05-18T01:20:23.393Z,23.77
2019-05-18T01:22:50.352Z,34.20
2019-05-18T01:25:17.612Z,29.10
2019-05-18T01:27:44.547Z,28.77
2019-05-18T01:30:12.318Z,25.30
2019-05-18T01:32:39.300Z,18.73
2019-05-18T01:35:15.543Z,24.57
2019-05-18T01:37:42.711Z,35.53
2019-05-18T01:40:09.744Z,25.17
2019-05-18T01:42:36.815Z,26.53
2019-05-18T01:45:16.230Z,30.37
2019-05-18T01:47:34.004Z,25.10
2019-05-18T01:50:00.956Z,24.27
2019-05-18T01:52:27.957Z,40.90
2019-05-18T01:54:54.918Z,34.93
2019-05-18T01:57:22.005Z,32.77
2019-05-18T01:59:49.003Z,32.07
2019-05-18T02:02:15.963Z,34.60
2019-05-18T02:04:42.911Z,31.53
2019-05-18T02:07:09.911Z,24.37
2019-05-18T02:09:36.850Z,28.33
2019-05-18T02:12:03.890Z,29.03
2019-05-18T02:14:30.871Z,23.90
2019-05-18T02:16:57.814Z,19.67
2019-05-18T02:19:26.628Z,26.17
2019-05-18T02:21:53.609Z,26.73
2019-05-18T02:24:20.882Z,18.20
2019-05-18T02:26:47.923Z,18.80
2019-05-18T02:29:14.936Z,20.57
2019-05-18T02:31:41.887Z,29.50
2019-05-18T02:34:08.847Z,21.83
2019-05-18T02:36:35.846Z,21.83
2019-05-18T02:39:04.778Z,35.60
2019-05-18T02:41:31.759Z,37.07
2019-05-18T02:43:58.711Z,20.77
2019-05-18T02:46:25.697Z,33.20
2019-05-18T02:48:52.648Z,26.30
2019-05-18T02:51:19.716Z,24.20
2019-05-18T02:53:46.704Z,21.10
2019-05-18T02:56:13.664Z,22.57
2019-05-18T02:58:42.444Z,16.03
2019-05-18T03:01:09.400Z,25.80
2019-05-18T03:03:36.330Z,16.53
2019-05-18T03:06:03.722Z,26.07
2019-05-18T03:08:30.794Z,17.10
2019-05-18T03:10:57.732Z,23.87
2019-05-18T03:13:24.722Z,23.77
2019-05-18T03:15:51.655Z,28.73
2019-05-18T03:18:18.611Z,23.57
2019-05-18T03:20:45.608Z,26.40
2019-05-18T03:23:12.533Z,24.53
2019-05-18T03:25:39.502Z,28.87
2019-05-18T03:28:06.471Z,27.47
2019-05-18T03:30:33.525Z,33.10
2019-05-18T03:33:01.493Z,27.60
2019-05-18T03:35:28.491Z,34.07
2019-05-18T03:37:57.878Z,34.07
2019-05-18T03:40:24.874Z,33.97
2019-05-18T03:42:51.808Z,30.27
2019-05-18T03:45:18.752Z,32.43
2019-05-18T03:47:45.722Z,33.57
2019-05-18T03:50:12.710Z,37.00
2019-05-18T03:52:39.663Z,40.37
2019-05-18T03:55:06.745Z,34.23
2019-05-18T03:57:33.748Z,35.97
2019-05-18T04:00:00.735Z,36.80
2019-05-18T04:02:27.662Z,38.77
2019-05-18T04:04:54.671Z,38.73
2019-05-18T04:07:21.605Z,37.10
2019-05-18T04:09:48.560Z,41.67
2019-05-18T04:12:15.555Z,31.67
2019-05-18T04:14:42.701Z,26.43
2019-05-18T04:17:09.797Z,36.63
2019-05-18T04:19:46.097Z,38.90
2019-05-18T04:22:05.626Z,41.43
2019-05-18T04:24:32.676Z,35.07
2019-05-18T04:27:00.750Z,41.90
2019-05-18T04:29:27.725Z,36.87
2019-05-18T04:31:54.692Z,36.13
2019-05-18T04:34:21.777Z,32.47
2019-05-18T04:36:50.534Z,34.70
2019-05-18T04:39:17.488Z,30.70
2019-05-18T04:41:44.436Z,30.03
2019-05-18T04:44:17.925Z,26.97
2019-05-18T04:46:44.869Z,35.00
2019-05-18T04:49:11.809Z,30.27
2019-05-18T04:51:38.794Z,37.30
2019-05-18T04:54:05.790Z,38.10
2019-05-18T04:56:32.804Z,36.83
2019-05-18T04:58:59.780Z,34.40
2019-05-18T05:01:26.913Z,36.00
2019-05-18T05:03:53.841Z,37.43
2019-05-18T05:06:27.083Z,33.80
2019-05-18T05:08:54.065Z,39.07
2019-05-18T05:11:21.040Z,42.13
2019-05-18T05:13:47.997Z,44.83
2019-05-18T05:16:34.403Z,42.23
2019-05-18T05:19:01.356Z,38.90
2019-05-18T05:21:28.780Z,41.80
2019-05-18T05:23:55.758Z,41.20
2019-05-18T05:26:22.705Z,43.23
2019-05-18T05:28:49.661Z,41.47
2019-05-18T05:31:16.727Z,42.27
2019-05-18T05:33:43.696Z,41.53
2019-05-18T05:36:10.648Z,39.23
2019-05-18T05:38:37.644Z,38.53
2019-05-18T05:41:04.627Z,44.97
2019-05-18T05:43:33.313Z,42.33
2019-05-18T05:46:00.302Z,40.90
2019-05-18T05:48:27.241Z,37.43
2019-05-18T05:50:54.219Z,42.77
2019-05-18T05:53:21.194Z,42.03
2019-05-18T05:55:48.138Z,40.87
2019-05-18T05:58:15.291Z,39.67
2019-05-18T06:00:42.237Z,37.40
2019-05-18T06:03:09.194Z,39.97
2019-05-18T06:05:36.163Z,41.70
2019-05-18T06:08:03.127Z,40.57
2019-05-18T06:10:30.086Z,41.17
2019-05-18T06:12:57.099Z,39.63
2019-05-18T06:15:24.020Z,41.77
2019-05-18T06:17:52.982Z,37.97
2019-05-18T06:20:20.125Z,39.43
2019-05-18T06:22:47.116Z,39.67
2019-05-18T06:25:14.047Z,38.10
2019-05-18T06:27:41.045Z,38.67
2019-05-18T06:30:08.424Z,36.33
2019-05-18T06:32:35.500Z,36.23
2019-05-18T06:35:04.437Z,34.00
2019-05-18T06:37:31.395Z,32.83
2019-05-18T06:39:58.344Z,30.57
2019-05-18T06:42:25.326Z,33.43
2019-05-18T06:45:03.825Z,35.40
2019-05-18T06:47:30.815Z,32.30
2019-05-18T06:49:57.816Z,32.73
2019-05-18T06:52:28.869Z,33.17
2019-05-18T06:54:57.427Z,30.50
2019-05-18T06:57:26.681Z,26.87
2019-05-18T06:59:53.740Z,32.57
2019-05-18T07:02:20.698Z,31.27
2019-05-18T07:04:47.681Z,30.20
2019-05-18T07:07:14.666Z,30.00
2019-05-18T07:09:41.613Z,28.53
2019-05-18T07:12:08.611Z,28.87
2019-05-18T07:14:36.905Z,28.90
2019-05-18T07:17:03.858Z,27.77
2019-05-18T07:19:30.979Z,26.87
2019-05-18T07:21:57.963Z,25.57
2019-05-18T07:24:24.952Z,25.97
2019-05-18T07:26:51.951Z,26.57
2019-05-18T07:29:18.892Z,26.37
2019-05-18T07:31:45.987Z,25.23
2019-05-18T07:34:12.968Z,26.20
2019-05-18T07:36:39.895Z,24.90
2019-05-18T07:39:09.749Z,26.43
2019-05-18T07:41:46.166Z,26.73
2019-05-18T07:44:06.948Z,29.47
2019-05-18T07:46:33.881Z,28.67
2019-05-18T07:49:01.039Z,31.37
2019-05-18T07:51:36.682Z,31.93
2019-05-18T07:53:56.995Z,30.83
2019-05-18T07:56:24.258Z,29.83
2019-05-18T07:58:51.287Z,30.70
2019-05-18T08:01:18.250Z,32.10
2019-05-18T08:03:45.275Z,29.67
2019-05-18T08:06:12.249Z,29.43
2019-05-18T08:08:39.204Z,31.47
2019-05-18T08:11:10.682Z,33.87
2019-05-18T08:13:37.596Z,32.37
2019-05-18T08:16:06.358Z,32.97
2019-05-18T08:18:33.398Z,35.00
2019-05-18T08:21:01.474Z,34.17
2019-05-18T08:23:47.201Z,32.07
2019-05-18T08:26:14.190Z,33.57
2019-05-18T08:28:41.129Z,33.00
2019-05-18T08:31:08.158Z,30.20
2019-05-18T08:33:35.131Z,32.80
2019-05-18T08:36:02.123Z,30.50
2019-05-18T08:38:29.247Z,34.33
2019-05-18T08:40:56.334Z,32.23
2019-05-18T08:43:23.303Z,30.13
2019-05-18T08:45:50.302Z,33.97
2019-05-18T08:48:17.257Z,34.77
2019-05-18T08:50:44.212Z,32.07
2019-05-18T08:53:11.208Z,32.13
2019-05-18T08:55:38.316Z,30.70
2019-05-18T08:58:05.306Z,31.83
2019-05-18T09:00:32.244Z,35.47
2019-05-18T09:02:59.274Z,31.70
2019-05-18T09:05:26.220Z,32.43
2019-05-18T09:07:53.189Z,33.30
2019-05-18T09:10:20.294Z,36.13
2019-05-18T09:12:47.258Z,36.50
2019-05-18T09:15:15.232Z,33.43
2019-05-18T09:17:42.300Z,33.13
2019-05-18T09:20:09.729Z,31.27
2019-05-18T09:22:36.809Z,31.53
2019-05-18T09:25:04.215Z,32.80
2019-05-18T09:27:31.152Z,32.87
2019-05-18T09:29:58.322Z,32.73
2019-05-18T09:32:25.329Z,32.90
2019-05-18T09:34:52.286Z,34.20
2019-05-18T09:37:31.440Z,30.83
2019-05-18T09:39:58.434Z,32.33
2019-05-18T09:42:25.520Z,33.40
2019-05-18T09:44:52.559Z,31.73
2019-05-18T09:47:19.524Z,31.73
2019-05-18T09:49:46.477Z,31.97
2019-05-18T09:52:13.480Z,30.93
2019-05-18T09:54:40.491Z,32.07
2019-05-18T09:57:19.889Z,31.93
2019-05-18T09:59:46.890Z,30.37
2019-05-18T10:02:13.897Z,31.47
2019-05-18T10:04:41.000Z,30.97
2019-05-18T10:07:07.989Z,30.07
2019-05-18T10:09:39.180Z,32.43
2019-05-18T10:12:03.862Z,32.53
2019-05-18T10:14:30.841Z,34.37
2019-05-18T10:16:57.941Z,31.23
2019-05-18T10:19:24.963Z,31.30
2019-05-18T10:21:51.904Z,32.20
2019-05-18T10:24:37.546Z,31.23
2019-05-18T10:27:04.580Z,30.87
2019-05-18T10:29:31.543Z,28.60
2019-05-18T10:31:58.536Z,30.33
2019-05-18T10:34:25.489Z,30.87
2019-05-18T10:36:52.508Z,29.27
2019-05-18T10:39:19.533Z,32.03
2019-05-18T10:41:46.496Z,30.70
2019-05-18T10:44:13.451Z,31.13
2019-05-18T10:46:40.477Z,28.27
2019-05-18T10:49:07.416Z,29.07
2019-05-18T10:51:36.186Z,28.70
2019-05-18T10:54:03.272Z,26.77
2019-05-18T10:56:31.298Z,25.37
2019-05-18T10:58:58.480Z,25.43
2019-05-18T11:01:25.820Z,23.80
2019-05-18T11:03:52.797Z,25.13
2019-05-18T11:06:19.763Z,25.57
2019-05-18T11:08:46.765Z,24.23
2019-05-18T11:11:13.819Z,26.27
2019-05-18T11:13:40.774Z,25.57
2019-05-18T11:16:07.773Z,25.63
2019-05-18T11:18:34.718Z,25.27
2019-05-18T11:21:01.696Z,25.73
2019-05-18T11:23:42.786Z,24.97
2019-05-18T11:25:58.940Z,25.00
2019-05-18T11:28:25.873Z,24.83
2019-05-18T11:30:53.068Z,24.57
2019-05-18T11:33:20.024Z,21.47
2019-05-18T11:35:50.978Z,20.23
2019-05-18T11:38:18.093Z,20.53
2019-05-18T11:40:45.080Z,20.43
2019-05-18T11:43:12.091Z,21.90
2019-05-18T11:45:39.091Z,20.17
2019-05-18T11:48:06.103Z,17.93
2019-05-18T11:50:33.084Z,15.57
2019-05-18T11:53:00.063Z,16.07
2019-05-18T11:55:27.092Z,16.17
2019-05-18T11:57:54.030Z,17.90
2019-05-18T12:00:21.668Z,15.53
2019-05-18T12:02:48.667Z,15.80
2019-05-18T12:05:16.058Z,15.33
2019-05-18T12:07:43.064Z,13.63
2019-05-18T12:10:10.681Z,13.97
2019-05-18T12:12:39.141Z,13.83
2019-05-18T12:15:06.922Z,13.63
2019-05-18T12:17:33.965Z,12.83
2019-05-18T12:20:00.919Z,16.23
2019-05-18T12:22:27.890Z,14.37
2019-05-18T12:24:58.436Z,14.37
2019-05-18T12:27:25.419Z,14.87
2019-05-18T12:29:52.401Z,14.57
2019-05-18T12:32:19.391Z,14.17
2019-05-18T12:34:46.438Z,15.23
2019-05-18T12:37:21.696Z,15.60
2019-05-18T12:40:28.510Z,16.47
2019-05-18T12:42:55.493Z,15.90
2019-05-18T12:45:23.116Z,15.10
2019-05-18T12:47:50.200Z,13.80
2019-05-18T12:50:19.467Z,13.83
2019-05-18T12:52:46.426Z,14.30
2019-05-18T12:55:15.535Z,15.27
2019-05-18T12:57:42.583Z,13.30
2019-05-18T13:00:10.084Z,13.37
2019-05-18T13:02:37.391Z,13.43
2019-05-18T13:05:06.430Z,11.17
2019-05-18T13:07:33.499Z,11.67
2019-05-18T13:10:00.505Z,12.50
2019-05-18T13:12:27.640Z,11.43
2019-05-18T13:14:54.728Z,12.33
2019-05-18T13:17:21.724Z,12.77
2019-05-18T13:19:48.804Z,12.20
2019-05-18T13:22:36.032Z,12.57
2019-05-18T13:25:03.366Z,12.60
2019-05-18T13:27:38.722Z,11.13
2019-05-18T13:30:12.363Z,11.70
2019-05-18T13:32:39.357Z,10.87
2019-05-18T13:35:06.531Z,12.07
2019-05-18T13:37:33.539Z,13.07
2019-05-18T13:40:00.522Z,12.10
2019-05-18T13:42:27.490Z,12.07
2019-05-18T13:44:54.563Z,12.37
2019-05-18T13:47:21.512Z,11.33
2019-05-18T13:49:48.507Z,11.63
2019-05-18T13:52:15.431Z,10.23
2019-05-18T13:54:42.388Z,11.10
2019-05-18T13:57:09.345Z,9.47
2019-05-18T13:59:36.365Z,9.57
2019-05-18T14:02:03.504Z,10.67
2019-05-18T14:04:30.570Z,9.73
2019-05-18T14:06:57.578Z,10.60
2019-05-18T14:09:24.534Z,9.77
2019-05-18T14:11:51.610Z,9.57
2019-05-18T14:14:18.828Z,10.10
2019-05-18T14:16:45.832Z,10.60
2019-05-18T14:19:12.809Z,9.80
2019-05-18T14:21:41.833Z,7.77
2019-05-18T14:24:08.847Z,6.13
2019-05-18T14:26:35.809Z,5.13
2019-05-18T14:29:02.854Z,4.13
2019-05-18T14:31:29.817Z,4.07
2019-05-18T14:33:56.770Z,4.23
2019-05-18T14:36:23.751Z,4.47
2019-05-18T14:38:50.742Z,4.83
2019-05-18T14:41:17.704Z,4.10
2019-05-18T14:43:44.747Z,6.17
2019-05-18T14:46:11.710Z,5.90
2019-05-18T14:48:38.684Z,5.50
2019-05-18T14:51:11.804Z,6.17
2019-05-18T14:53:39.889Z,5.23
2019-05-18T14:56:06.960Z,6.00
2019-05-18T14:58:33.985Z,5.40
2019-05-18T15:01:01.003Z,6.60
2019-05-18T15:03:28.071Z,6.60
2019-05-18T15:05:55.120Z,5.53
2019-05-18T15:08:22.065Z,5.63
2019-05-18T15:10:49.073Z,5.07
2019-05-18T15:13:43.623Z,4.57
2019-05-18T15:16:10.598Z,5.73
2019-05-18T15:18:45.683Z,5.20
2019-05-18T15:21:12.624Z,5.60
2019-05-18T15:23:39.581Z,5.60
2019-05-18T15:26:06.701Z,5.20
2019-05-18T15:28:33.666Z,4.67
2019-05-18T15:31:00.771Z,5.07
2019-05-18T15:33:27.764Z,5.53
2019-05-18T15:35:54.735Z,6.00
2019-05-18T15:38:21.729Z,5.60
2019-05-18T15:40:50.957Z,5.53
2019-05-18T15:43:18.028Z,6.67
2019-05-18T15:45:45.095Z,5.40
2019-05-18T15:48:12.123Z,5.03
2019-05-18T15:50:39.386Z,5.13
2019-05-18T15:53:06.339Z,4.83
2019-05-18T15:55:33.333Z,5.53
2019-05-18T15:58:00.315Z,5.07
2019-05-18T16:00:27.312Z,5.03
2019-05-18T16:02:54.330Z,5.33
2019-05-18T16:05:21.453Z,5.30
2019-05-18T16:07:48.460Z,4.50
2019-05-18T16:10:16.248Z,4.37
2019-05-18T16:12:43.368Z,5.10
2019-05-18T16:15:14.244Z,5.90
2019-05-18T16:17:41.332Z,4.63
2019-05-18T16:20:08.935Z,5.27
2019-05-18T16:22:35.975Z,5.47
2019-05-18T16:25:03.800Z,5.97
2019-05-18T16:27:30.757Z,5.97
2019-05-18T16:29:57.851Z,5.20
2019-05-18T16:32:24.828Z,6.37
2019-05-18T16:34:51.788Z,5.07
2019-05-18T16:37:18.775Z,4.70
2019-05-18T16:39:45.822Z,5.70
2019-05-18T16:42:12.897Z,5.53
2019-05-18T16:44:39.862Z,6.10
2019-05-18T16:47:06.841Z,6.37
2019-05-18T16:49:39.907Z,6.60
2019-05-18T16:52:06.900Z,6.70
2019-05-18T16:54:33.876Z,6.67
2019-05-18T16:57:00.881Z,6.23
2019-05-18T16:59:27.842Z,6.37
2019-05-18T17:01:54.865Z,6.50
2019-05-18T17:04:21.840Z,5.93
2019-05-18T17:06:48.934Z,6.60
2019-05-18T17:09:15.996Z,7.00
2019-05-18T17:11:42.985Z,6.43
2019-05-18T17:14:09.940Z,6.60
2019-05-18T17:17:22.115Z,6.43
2019-05-18T17:19:49.077Z,5.73
2019-05-18T17:22:16.025Z,5.53
2019-05-18T17:24:43.040Z,5.93
2019-05-18T17:27:10.228Z,5.50
2019-05-18T17:29:37.277Z,6.27
2019-05-18T17:32:04.396Z,5.77
2019-05-18T17:34:31.371Z,5.67
2019-05-18T17:36:58.430Z,5.83
2019-05-18T17:39:25.551Z,5.27
2019-05-18T17:41:56.903Z,5.43
2019-05-18T17:44:23.954Z,5.10
2019-05-18T17:46:50.941Z,5.33
2019-05-18T17:49:26.321Z,5.40
2019-05-18T17:51:46.882Z,5.67
2019-05-18T17:54:13.946Z,5.73
2019-05-18T17:56:46.946Z,6.63
2019-05-18T17:59:13.929Z,5.67
2019-05-18T18:01:40.967Z,3.70
2019-05-18T18:04:07.963Z,3.80
2019-05-18T18:06:34.933Z,3.90
2019-05-18T18:09:05.661Z,3.80
2019-05-18T18:11:32.618Z,4.20
2019-05-18T18:13:59.643Z,3.80
2019-05-18T18:16:26.599Z,3.40
2019-05-18T18:18:53.683Z,5.00
2019-05-18T18:21:20.671Z,4.30
2019-05-18T18:23:54.022Z,4.33
2019-05-18T18:26:16.960Z,4.77
2019-05-18T18:28:43.921Z,4.60
2019-05-18T18:31:18.050Z,6.27
2019-05-18T18:33:45.083Z,6.40
2019-05-18T18:36:12.443Z,6.03
2019-05-18T18:38:39.411Z,5.90
2019-05-18T18:41:06.446Z,6.33
2019-05-18T18:43:33.426Z,6.30
2019-05-18T18:46:06.612Z,5.53
2019-05-18T18:48:33.661Z,5.90
2019-05-18T18:51:00.670Z,6.00
2019-05-18T18:53:27.627Z,6.67
2019-05-18T18:55:54.673Z,6.23
2019-05-18T18:58:44.662Z,6.33
2019-05-18T19:01:11.673Z,6.20
2019-05-18T19:03:38.706Z,6.53
2019-05-18T19:06:05.745Z,6.13
2019-05-18T19:08:32.771Z,6.90
2019-05-18T19:11:04.375Z,6.60
2019-05-18T19:13:31.354Z,6.50
2019-05-18T19:15:58.354Z,6.30
2019-05-18T19:18:25.308Z,6.80
2019-05-18T19:20:52.260Z,5.33
2019-05-18T19:23:19.260Z,5.13
2019-05-18T19:25:46.356Z,4.10
2019-05-18T19:28:13.314Z,4.00
2019-05-18T19:30:40.301Z,3.90
2019-05-18T19:33:07.257Z,3.43
2019-05-18T19:35:34.227Z,3.63
2019-05-18T19:38:01.237Z,4.13
2019-05-18T19:40:28.198Z,4.40
2019-05-18T19:42:56.276Z,4.37
2019-05-18T19:45:23.329Z,4.90
2019-05-18T19:47:50.298Z,5.30
2019-05-18T19:50:17.590Z,5.87
2019-05-18T19:52:44.705Z,5.70
2019-05-18T19:55:48.158Z,6.10
2019-05-18T19:58:15.313Z,6.10
2019-05-18T20:00:44.371Z,5.97
2019-05-18T20:03:11.400Z,6.23
2019-05-18T20:05:39.396Z,5.87
2019-05-18T20:08:06.395Z,6.03
2019-05-18T20:10:51.632Z,5.90
2019-05-18T20:13:18.855Z,6.27
2019-05-18T20:15:46.098Z,6.07
2019-05-18T20:18:13.098Z,6.20
2019-05-18T20:20:40.076Z,6.57
2019-05-18T20:23:08.456Z,7.13
2019-05-18T20:26:21.861Z,6.33
2019-05-18T20:28:48.865Z,6.60
2019-05-18T20:31:15.872Z,7.53
2019-05-18T20:33:42.899Z,7.40
2019-05-18T20:36:09.883Z,7.80
2019-05-18T20:38:36.972Z,7.43
2019-05-18T20:41:04.248Z,8.23
2019-05-18T20:43:33.895Z,8.10
2019-05-18T20:46:00.887Z,8.30
2019-05-18T20:48:27.907Z,8.30
2019-05-18T20:51:02.259Z,8.00
2019-05-18T20:53:29.241Z,7.27
2019-05-18T20:55:56.301Z,8.60
2019-05-18T20:58:37.118Z,7.60
2019-05-18T21:00:52.225Z,7.50
2019-05-18T21:03:19.218Z,8.43
2019-05-18T21:05:46.207Z,7.43
2019-05-18T21:08:13.206Z,8.20
2019-05-18T21:10:40.209Z,10.40
2019-05-18T21:13:11.335Z,9.87
2019-05-18T21:15:38.415Z,10.30
2019-05-18T21:18:05.576Z,10.20
2019-05-18T21:20:32.540Z,8.37
2019-05-18T21:22:59.506Z,8.80
2019-05-18T21:25:26.512Z,9.17
2019-05-18T21:27:53.474Z,10.93
2019-05-18T21:30:45.169Z,10.93
2019-05-18T21:33:12.359Z,12.37
2019-05-18T21:35:39.325Z,10.37
2019-05-18T21:38:06.410Z,9.53
2019-05-18T21:40:33.417Z,11.27
2019-05-18T21:43:06.459Z,11.73
2019-05-18T21:45:33.463Z,11.77
2019-05-18T21:48:01.605Z,13.57
2019-05-18T21:50:28.553Z,14.97
2019-05-18T21:52:55.525Z,14.97
2019-05-18T21:55:22.510Z,13.87
2019-05-18T21:57:49.479Z,14.40
2019-05-18T22:00:16.638Z,14.87
2019-05-18T22:02:43.647Z,14.87
2019-05-18T22:05:12.970Z,15.33
2019-05-18T22:07:39.941Z,14.70
2019-05-18T22:10:07.166Z,13.30
2019-05-18T22:12:34.181Z,13.63
2019-05-18T22:15:01.289Z,12.97
2019-05-18T22:17:28.272Z,13.57
2019-05-18T22:19:55.235Z,14.83
2019-05-18T22:22:23.317Z,14.67
2019-05-18T22:24:50.334Z,12.63
2019-05-18T22:27:17.330Z,13.77
2019-05-18T22:29:44.283Z,13.17
2019-05-18T22:32:11.302Z,14.83
2019-05-18T22:34:38.277Z,14.83
2019-05-18T22:37:05.277Z,15.30
2019-05-18T22:39:32.248Z,15.17
2019-05-18T22:42:01.016Z,14.17
2019-05-18T22:44:27.961Z,14.70
2019-05-18T22:46:54.955Z,14.10
2019-05-18T22:49:21.946Z,12.90
2019-05-18T22:51:48.899Z,13.53
2019-05-18T22:54:15.903Z,14.93
2019-05-18T22:56:42.881Z,14.50
2019-05-18T22:59:09.954Z,14.73
2019-05-18T23:01:38.761Z,14.50
2019-05-18T23:04:05.750Z,13.10
2019-05-18T23:06:32.813Z,13.63
2019-05-18T23:08:59.828Z,15.60
2019-05-18T23:11:26.955Z,15.13
2019-05-18T23:13:54.027Z,16.20
2019-05-18T23:16:21.027Z,17.70
2019-05-18T23:18:56.769Z,16.17
2019-05-18T23:21:19.949Z,17.90
2019-05-18T23:23:47.168Z,19.60
2019-05-18T23:26:14.136Z,21.50
2019-05-18T23:28:42.236Z,22.13
2019-05-18T23:31:09.235Z,22.00
2019-05-18T23:33:36.193Z,22.90
2019-05-18T23:36:03.226Z,24.47
2019-05-18T23:38:30.517Z,26.37
2019-05-18T23:40:57.491Z,28.40
2019-05-18T23:43:24.446Z,30.37
2019-05-18T23:45:51.606Z,30.47
2019-05-18T23:48:18.642Z,32.20
2019-05-18T23:50:45.614Z,30.67
2019-05-18T23:53:12.705Z,31.37
2019-05-18T23:55:39.639Z,33.33
2019-05-18T23:58:06.721Z,36.17
